sensor_id;sensor_type;location;lat;lon;timestamp;P1;durP1;ratioP1;P2;durP2;ratioP2
813;SDS011;389;48.710;9.392;2024-02-21T00:05:03;20.20;;;11.37;;
813;SDS011;389;48.710;9.392;2024-02-21T00:07:35;20.20;;;11.40;;
813;SDS011;389;48.710;9.392;2024-02-21T00:10:05;17.50;;;11.50;;
813;SDS011;389;48.710;9.392;2024-02-21T00:12:54;26.57;;;12.63;;
813;SDS011;389;48.710;9.392;2024-02-21T00:15:24;19.87;;;12.20;;
813;SDS011;389;48.710;9.392;2024-02-21T00:17:53;22.30;;;11.40;;
813;SDS011;389;48.710;9.392;2024-02-21T00:20:24;25.20;;;12.23;;
813;SDS011;389;48.710;9.392;2024-02-21T00:22:55;25.17;;;14.67;;
813;SDS011;389;48.710;9.392;2024-02-21T00:25:23;19.90;;;12.47;;
813;SDS011;389;48.710;9.392;2024-02-21T00:27:49;20.30;;;12.10;;
813;SDS011;389;48.710;9.392;2024-02-21T00:30:40;28.97;;;14.13;;
813;SDS011;389;48.710;9.392;2024-02-21T00:33:22;28.77;;;14.13;;
813;SDS011;389;48.710;9.392;2024-02-21T00:35:57;22.43;;;12.10;;
813;SDS011;389;48.710;9.392;2024-02-21T00:38:37;22.57;;;13.07;;
813;SDS011;389;48.710;9.392;2024-02-21T00:41:12;20.63;;;12.33;;
813;SDS011;389;48.710;9.392;2024-02-21T00:43:51;19.37;;;12.43;;
813;SDS011;389;48.710;9.392;2024-02-21T00:46:16;24.23;;;14.87;;
813;SDS011;389;48.710;9.392;2024-02-21T00:48:44;25.60;;;14.90;;
813;SDS011;389;48.710;9.392;2024-02-21T00:51:21;22.90;;;14.27;;
813;SDS011;389;48.710;9.392;2024-02-21T00:53:49;29.20;;;14.73;;
813;SDS011;389;48.710;9.392;2024-02-21T00:56:34;22.43;;;13.60;;
813;SDS011;389;48.710;9.392;2024-02-21T00:59:00;21.80;;;14.33;;
813;SDS011;389;48.710;9.392;2024-02-21T01:01:26;22.60;;;13.30;;
813;SDS011;389;48.710;9.392;2024-02-21T01:03:52;22.00;;;12.50;;
813;SDS011;389;48.710;9.392;2024-02-21T01:06:19;21.03;;;11.63;;
813;SDS011;389;48.710;9.392;2024-02-21T01:08:51;18.87;;;11.10;;
813;SDS011;389;48.710;9.392;2024-02-21T01:11:19;15.50;;;11.10;;
813;SDS011;389;48.710;9.392;2024-02-21T01:13:50;21.50;;;10.90;;
813;SDS011;389;48.710;9.392;2024-02-21T01:16:22;19.40;;;12.00;;
813;SDS011;389;48.710;9.392;2024-02-21T01:18:48;18.30;;;11.00;;
813;SDS011;389;48.710;9.392;2024-02-21T01:21:16;23.73;;;10.90;;
813;SDS011;389;48.710;9.392;2024-02-21T01:23:42;22.70;;;11.00;;
813;SDS011;389;48.710;9.392;2024-02-21T01:26:10;21.80;;;11.10;;
813;SDS011;389;48.710;9.392;2024-02-21T01:28:49;18.70;;;10.23;;
813;SDS011;389;48.710;9.392;2024-02-21T01:31:19;20.47;;;9.83;;
813;SDS011;389;48.710;9.392;2024-02-21T01:33:48;16.47;;;10.77;;
813;SDS011;389;48.710;9.392;2024-02-21T01:36:16;18.20;;;10.37;;
813;SDS011;389;48.710;9.392;2024-02-21T01:38:44;21.83;;;10.23;;
813;SDS011;389;48.710;9.392;2024-02-21T01:41:09;20.33;;;9.50;;
813;SDS011;389;48.710;9.392;2024-02-21T01:43:35;17.90;;;9.87;;
813;SDS011;389;48.710;9.392;2024-02-21T01:46:03;15.20;;;9.67;;
813;SDS011;389;48.710;9.392;2024-02-21T01:48:28;16.03;;;10.20;;
813;SDS011;389;48.710;9.392;2024-02-21T01:50:55;16.77;;;9.57;;
813;SDS011;389;48.710;9.392;2024-02-21T01:53:29;14.67;;;9.47;;
813;SDS011;389;48.710;9.392;2024-02-21T01:55:58;16.90;;;9.57;;
813;SDS011;389;48.710;9.392;2024-02-21T01:58:24;17.27;;;9.40;;
813;SDS011;389;48.710;9.392;2024-02-21T02:00:50;13.10;;;9.60;;
813;SDS011;389;48.710;9.392;2024-02-21T02:03:16;17.90;;;9.20;;
813;SDS011;389;48.710;9.392;2024-02-21T02:05:48;17.90;;;9.10;;
813;SDS011;389;48.710;9.392;2024-02-21T02:08:18;16.10;;;8.40;;
813;SDS011;389;48.710;9.392;2024-02-21T02:10:47;16.63;;;9.23;;
813;SDS011;389;48.710;9.392;2024-02-21T02:13:12;14.60;;;8.20;;
813;SDS011;389;48.710;9.392;2024-02-21T02:15:42;13.20;;;8.40;;
813;SDS011;389;48.710;9.392;2024-02-21T02:18:11;14.00;;;8.50;;
813;SDS011;389;48.710;9.392;2024-02-21T02:20:37;15.33;;;8.13;;
813;SDS011;389;48.710;9.392;2024-02-21T02:25:36;18.90;;;8.20;;
813;SDS011;389;48.710;9.392;2024-02-21T02:28:05;14.67;;;7.77;;
813;SDS011;389;48.710;9.392;2024-02-21T02:30:32;11.00;;;8.03;;
813;SDS011;389;48.710;9.392;2024-02-21T02:32:59;16.03;;;8.70;;
813;SDS011;389;48.710;9.392;2024-02-21T02:35:24;14.10;;;7.70;;
813;SDS011;389;48.710;9.392;2024-02-21T02:37:50;10.30;;;7.23;;
813;SDS011;389;48.710;9.392;2024-02-21T02:40:16;13.03;;;8.30;;
813;SDS011;389;48.710;9.392;2024-02-21T02:42:44;11.53;;;7.40;;
813;SDS011;389;48.710;9.392;2024-02-21T02:45:10;10.50;;;6.63;;
813;SDS011;389;48.710;9.392;2024-02-21T02:47:36;14.77;;;7.80;;
813;SDS011;389;48.710;9.392;2024-02-21T02:50:01;10.00;;;7.30;;
813;SDS011;389;48.710;9.392;2024-02-21T02:52:27;15.13;;;6.53;;
813;SDS011;389;48.710;9.392;2024-02-21T02:54:54;14.50;;;7.43;;
813;SDS011;389;48.710;9.392;2024-02-21T02:57:21;12.17;;;7.47;;
813;SDS011;389;48.710;9.392;2024-02-21T02:59:52;12.33;;;8.10;;
813;SDS011;389;48.710;9.392;2024-02-21T03:02:18;18.47;;;8.77;;
813;SDS011;389;48.710;9.392;2024-02-21T03:04:44;16.73;;;9.70;;
813;SDS011;389;48.710;9.392;2024-02-21T03:07:09;19.90;;;10.73;;
813;SDS011;389;48.710;9.392;2024-02-21T03:09:36;19.93;;;10.87;;
813;SDS011;389;48.710;9.392;2024-02-21T03:12:02;22.77;;;10.70;;
813;SDS011;389;48.710;9.392;2024-02-21T03:14:29;20.77;;;10.27;;
813;SDS011;389;48.710;9.392;2024-02-21T03:16:54;17.53;;;8.20;;
813;SDS011;389;48.710;9.392;2024-02-21T03:19:20;10.77;;;7.07;;
813;SDS011;389;48.710;9.392;2024-02-21T03:21:46;13.60;;;6.23;;
813;SDS011;389;48.710;9.392;2024-02-21T03:24:11;12.60;;;5.40;;
813;SDS011;389;48.710;9.392;2024-02-21T03:26:37;12.67;;;6.50;;
813;SDS011;389;48.710;9.392;2024-02-21T03:29:03;8.90;;;6.17;;
813;SDS011;389;48.710;9.392;2024-02-21T03:31:29;10.00;;;6.33;;
813;SDS011;389;48.710;9.392;2024-02-21T03:33:54;9.50;;;5.87;;
813;SDS011;389;48.710;9.392;2024-02-21T03:36:20;9.00;;;5.00;;
813;SDS011;389;48.710;9.392;2024-02-21T03:38:45;10.13;;;6.30;;
813;SDS011;389;48.710;9.392;2024-02-21T03:41:11;9.47;;;6.80;;
813;SDS011;389;48.710;9.392;2024-02-21T03:43:37;8.77;;;6.00;;
813;SDS011;389;48.710;9.392;2024-02-21T03:46:03;9.03;;;5.70;;
813;SDS011;389;48.710;9.392;2024-02-21T03:48:29;15.77;;;8.97;;
813;SDS011;389;48.710;9.392;2024-02-21T03:50:55;19.57;;;10.57;;
813;SDS011;389;48.710;9.392;2024-02-21T03:53:20;24.10;;;11.90;;
813;SDS011;389;48.710;9.392;2024-02-21T03:55:46;25.30;;;10.93;;
813;SDS011;389;48.710;9.392;2024-02-21T03:58:11;23.10;;;11.20;;
813;SDS011;389;48.710;9.392;2024-02-21T04:00:37;13.93;;;7.60;;
813;SDS011;389;48.710;9.392;2024-02-21T04:03:02;10.43;;;7.23;;
813;SDS011;389;48.710;9.392;2024-02-21T04:05:28;14.20;;;8.00;;
813;SDS011;389;48.710;9.392;2024-02-21T04:07:53;13.87;;;7.70;;
813;SDS011;389;48.710;9.392;2024-02-21T04:10:19;12.47;;;7.80;;
813;SDS011;389;48.710;9.392;2024-02-21T04:12:44;17.40;;;7.27;;
813;SDS011;389;48.710;9.392;2024-02-21T04:15:10;12.70;;;6.83;;
813;SDS011;389;48.710;9.392;2024-02-21T04:17:36;16.30;;;8.53;;
813;SDS011;389;48.710;9.392;2024-02-21T04:20:05;10.30;;;6.53;;
813;SDS011;389;48.710;9.392;2024-02-21T04:22:32;9.27;;;6.50;;
813;SDS011;389;48.710;9.392;2024-02-21T04:25:02;11.10;;;6.80;;
813;SDS011;389;48.710;9.392;2024-02-21T04:27:27;11.97;;;7.17;;
813;SDS011;389;48.710;9.392;2024-02-21T04:29:53;10.00;;;5.77;;
813;SDS011;389;48.710;9.392;2024-02-21T04:32:19;14.53;;;7.27;;
813;SDS011;389;48.710;9.392;2024-02-21T04:34:44;19.90;;;10.40;;
813;SDS011;389;48.710;9.392;2024-02-21T04:37:10;25.13;;;14.43;;
813;SDS011;389;48.710;9.392;2024-02-21T04:39:35;25.10;;;13.13;;
813;SDS011;389;48.710;9.392;2024-02-21T04:42:01;25.53;;;13.10;;
813;SDS011;389;48.710;9.392;2024-02-21T04:44:26;25.60;;;14.20;;
813;SDS011;389;48.710;9.392;2024-02-21T04:46:52;22.90;;;12.10;;
813;SDS011;389;48.710;9.392;2024-02-21T04:49:18;17.30;;;10.50;;
813;SDS011;389;48.710;9.392;2024-02-21T04:51:43;18.10;;;9.70;;
813;SDS011;389;48.710;9.392;2024-02-21T04:54:09;18.53;;;10.70;;
813;SDS011;389;48.710;9.392;2024-02-21T04:56:35;19.07;;;9.00;;
813;SDS011;389;48.710;9.392;2024-02-21T04:59:00;17.33;;;7.10;;
813;SDS011;389;48.710;9.392;2024-02-21T05:01:26;14.50;;;7.70;;
813;SDS011;389;48.710;9.392;2024-02-21T05:03:52;9.93;;;6.73;;
813;SDS011;389;48.710;9.392;2024-02-21T05:06:18;13.70;;;6.40;;
813;SDS011;389;48.710;9.392;2024-02-21T05:08:43;13.97;;;6.80;;
813;SDS011;389;48.710;9.392;2024-02-21T05:11:09;15.87;;;6.60;;
813;SDS011;389;48.710;9.392;2024-02-21T05:13:35;13.63;;;7.30;;
813;SDS011;389;48.710;9.392;2024-02-21T05:16:00;23.20;;;13.27;;
813;SDS011;389;48.710;9.392;2024-02-21T05:18:27;12.50;;;8.70;;
813;SDS011;389;48.710;9.392;2024-02-21T05:20:53;12.83;;;8.80;;
813;SDS011;389;48.710;9.392;2024-02-21T05:23:19;13.40;;;8.70;;
813;SDS011;389;48.710;9.392;2024-02-21T05:25:44;15.87;;;8.30;;
813;SDS011;389;48.710;9.392;2024-02-21T05:28:10;17.87;;;9.50;;
813;SDS011;389;48.710;9.392;2024-02-21T05:30:35;16.87;;;8.73;;
813;SDS011;389;48.710;9.392;2024-02-21T05:33:07;11.97;;;6.83;;
813;SDS011;389;48.710;9.392;2024-02-21T05:35:33;13.00;;;6.70;;
813;SDS011;389;48.710;9.392;2024-02-21T05:37:59;10.83;;;6.13;;
813;SDS011;389;48.710;9.392;2024-02-21T05:40:25;11.03;;;6.67;;
813;SDS011;389;48.710;9.392;2024-02-21T05:42:51;11.77;;;6.37;;
813;SDS011;389;48.710;9.392;2024-02-21T05:45:17;11.60;;;7.10;;
813;SDS011;389;48.710;9.392;2024-02-21T05:47:43;13.10;;;6.33;;
813;SDS011;389;48.710;9.392;2024-02-21T05:50:09;8.87;;;6.20;;
813;SDS011;389;48.710;9.392;2024-02-21T05:52:35;9.40;;;6.10;;
813;SDS011;389;48.710;9.392;2024-02-21T05:55:00;12.90;;;7.17;;
813;SDS011;389;48.710;9.392;2024-02-21T05:57:26;11.70;;;6.53;;
813;SDS011;389;48.710;9.392;2024-02-21T05:59:51;12.63;;;6.97;;
813;SDS011;389;48.710;9.392;2024-02-21T06:02:17;12.47;;;6.33;;
813;SDS011;389;48.710;9.392;2024-02-21T06:04:42;11.93;;;6.87;;
813;SDS011;389;48.710;9.392;2024-02-21T06:07:09;11.67;;;7.10;;
813;SDS011;389;48.710;9.392;2024-02-21T06:09:35;8.70;;;5.90;;
813;SDS011;389;48.710;9.392;2024-02-21T06:12:00;11.90;;;6.80;;
813;SDS011;389;48.710;9.392;2024-02-21T06:14:26;10.63;;;5.70;;
813;SDS011;389;48.710;9.392;2024-02-21T06:16:51;13.27;;;6.20;;
813;SDS011;389;48.710;9.392;2024-02-21T06:19:17;13.60;;;7.63;;
813;SDS011;389;48.710;9.392;2024-02-21T06:21:42;10.80;;;6.30;;
813;SDS011;389;48.710;9.392;2024-02-21T06:24:08;11.37;;;6.97;;
813;SDS011;389;48.710;9.392;2024-02-21T06:26:34;10.30;;;5.70;;
813;SDS011;389;48.710;9.392;2024-02-21T06:28:59;8.03;;;5.73;;
813;SDS011;389;48.710;9.392;2024-02-21T06:31:25;9.00;;;5.70;;
813;SDS011;389;48.710;9.392;2024-02-21T06:33:50;12.73;;;5.80;;
813;SDS011;389;48.710;9.392;2024-02-21T06:36:16;9.60;;;6.50;;
813;SDS011;389;48.710;9.392;2024-02-21T06:38:42;11.33;;;6.17;;
813;SDS011;389;48.710;9.392;2024-02-21T06:41:14;7.70;;;5.60;;
813;SDS011;389;48.710;9.392;2024-02-21T06:43:44;12.43;;;6.67;;
813;SDS011;389;48.710;9.392;2024-02-21T06:46:11;9.37;;;6.07;;
813;SDS011;389;48.710;9.392;2024-02-21T06:48:36;15.93;;;6.73;;
813;SDS011;389;48.710;9.392;2024-02-21T06:51:02;18.97;;;7.67;;
813;SDS011;389;48.710;9.392;2024-02-21T06:53:28;12.77;;;7.13;;
813;SDS011;389;48.710;9.392;2024-02-21T06:55:54;13.13;;;6.63;;
813;SDS011;389;48.710;9.392;2024-02-21T06:58:19;13.83;;;7.97;;
813;SDS011;389;48.710;9.392;2024-02-21T07:00:45;12.87;;;7.13;;
813;SDS011;389;48.710;9.392;2024-02-21T07:03:11;12.03;;;7.27;;
813;SDS011;389;48.710;9.392;2024-02-21T07:05:36;13.90;;;7.23;;
813;SDS011;389;48.710;9.392;2024-02-21T07:08:02;14.07;;;7.80;;
813;SDS011;389;48.710;9.392;2024-02-21T07:10:28;10.23;;;6.93;;
813;SDS011;389;48.710;9.392;2024-02-21T07:12:54;16.23;;;8.57;;
813;SDS011;389;48.710;9.392;2024-02-21T07:15:20;14.27;;;8.17;;
813;SDS011;389;48.710;9.392;2024-02-21T07:17:46;22.57;;;8.50;;
813;SDS011;389;48.710;9.392;2024-02-21T07:20:11;13.03;;;8.00;;
813;SDS011;389;48.710;9.392;2024-02-21T07:22:37;14.07;;;8.20;;
813;SDS011;389;48.710;9.392;2024-02-21T07:25:03;14.40;;;8.50;;
813;SDS011;389;48.710;9.392;2024-02-21T07:27:29;13.70;;;8.50;;
813;SDS011;389;48.710;9.392;2024-02-21T07:29:56;19.73;;;9.53;;
813;SDS011;389;48.710;9.392;2024-02-21T07:32:22;20.80;;;10.57;;
813;SDS011;389;48.710;9.392;2024-02-21T07:34:47;21.40;;;11.00;;
813;SDS011;389;48.710;9.392;2024-02-21T07:37:13;21.80;;;10.80;;
813;SDS011;389;48.710;9.392;2024-02-21T07:39:39;15.67;;;8.90;;
813;SDS011;389;48.710;9.392;2024-02-21T07:42:04;15.60;;;9.60;;
813;SDS011;389;48.710;9.392;2024-02-21T07:44:30;20.00;;;12.50;;
813;SDS011;389;48.710;9.392;2024-02-21T07:46:57;16.03;;;10.10;;
813;SDS011;389;48.710;9.392;2024-02-21T07:49:23;18.87;;;10.97;;
813;SDS011;389;48.710;9.392;2024-02-21T07:51:48;17.90;;;10.20;;
813;SDS011;389;48.710;9.392;2024-02-21T07:54:14;14.20;;;9.50;;
813;SDS011;389;48.710;9.392;2024-02-21T07:56:40;15.73;;;9.37;;
813;SDS011;389;48.710;9.392;2024-02-21T07:59:05;15.80;;;10.10;;
813;SDS011;389;48.710;9.392;2024-02-21T08:01:31;16.87;;;9.83;;
813;SDS011;389;48.710;9.392;2024-02-21T08:03:56;18.50;;;11.33;;
813;SDS011;389;48.710;9.392;2024-02-21T08:06:23;16.10;;;8.87;;
813;SDS011;389;48.710;9.392;2024-02-21T08:08:49;13.70;;;8.87;;
813;SDS011;389;48.710;9.392;2024-02-21T08:11:14;17.40;;;8.70;;
813;SDS011;389;48.710;9.392;2024-02-21T08:13:40;13.67;;;8.40;;
813;SDS011;389;48.710;9.392;2024-02-21T08:16:06;58.13;;;28.90;;
813;SDS011;389;48.710;9.392;2024-02-21T08:18:31;56.83;;;29.47;;
813;SDS011;389;48.710;9.392;2024-02-21T08:21:01;16.53;;;10.27;;
813;SDS011;389;48.710;9.392;2024-02-21T08:23:26;27.80;;;15.00;;
813;SDS011;389;48.710;9.392;2024-02-21T08:25:52;72.33;;;31.43;;
813;SDS011;389;48.710;9.392;2024-02-21T08:28:18;12.60;;;7.37;;
813;SDS011;389;48.710;9.392;2024-02-21T08:30:43;111.17;;;50.60;;
813;SDS011;389;48.710;9.392;2024-02-21T08:33:12;10.50;;;7.60;;
813;SDS011;389;48.710;9.392;2024-02-21T08:35:39;23.00;;;12.00;;
813;SDS011;389;48.710;9.392;2024-02-21T08:38:05;9.33;;;5.67;;
813;SDS011;389;48.710;9.392;2024-02-21T08:40:30;11.10;;;5.67;;
813;SDS011;389;48.710;9.392;2024-02-21T08:42:56;15.07;;;6.30;;
813;SDS011;389;48.710;9.392;2024-02-21T08:45:21;10.20;;;4.93;;
813;SDS011;389;48.710;9.392;2024-02-21T08:47:47;9.30;;;5.13;;
813;SDS011;389;48.710;9.392;2024-02-21T08:50:12;10.40;;;5.60;;
813;SDS011;389;48.710;9.392;2024-02-21T08:52:38;7.43;;;5.10;;
813;SDS011;389;48.710;9.392;2024-02-21T08:55:04;11.97;;;5.50;;
813;SDS011;389;48.710;9.392;2024-02-21T08:57:30;8.90;;;5.23;;
813;SDS011;389;48.710;9.392;2024-02-21T09:00:01;8.27;;;5.53;;
813;SDS011;389;48.710;9.392;2024-02-21T09:02:34;9.57;;;5.20;;
813;SDS011;389;48.710;9.392;2024-02-21T09:05:01;10.70;;;5.30;;
813;SDS011;389;48.710;9.392;2024-02-21T09:07:30;9.30;;;5.03;;
813;SDS011;389;48.710;9.392;2024-02-21T09:09:55;9.53;;;5.70;;
813;SDS011;389;48.710;9.392;2024-02-21T09:12:21;8.03;;;5.27;;
813;SDS011;389;48.710;9.392;2024-02-21T09:14:47;42.17;;;17.00;;
813;SDS011;389;48.710;9.392;2024-02-21T09:17:15;13.30;;;7.30;;
813;SDS011;389;48.710;9.392;2024-02-21T09:19:42;11.13;;;6.40;;
813;SDS011;389;48.710;9.392;2024-02-21T09:22:08;11.00;;;5.90;;
813;SDS011;389;48.710;9.392;2024-02-21T09:24:34;9.73;;;5.30;;
813;SDS011;389;48.710;9.392;2024-02-21T09:26:59;6.90;;;5.30;;
813;SDS011;389;48.710;9.392;2024-02-21T09:29:25;9.37;;;5.37;;
813;SDS011;389;48.710;9.392;2024-02-21T09:31:51;8.93;;;6.37;;
813;SDS011;389;48.710;9.392;2024-02-21T09:34:17;10.17;;;4.97;;
813;SDS011;389;48.710;9.392;2024-02-21T09:36:42;9.27;;;3.73;;
813;SDS011;389;48.710;9.392;2024-02-21T09:39:09;9.73;;;4.53;;
813;SDS011;389;48.710;9.392;2024-02-21T09:41:39;11.60;;;5.20;;
813;SDS011;389;48.710;9.392;2024-02-21T09:44:10;8.27;;;4.50;;
813;SDS011;389;48.710;9.392;2024-02-21T09:46:50;8.47;;;4.50;;
813;SDS011;389;48.710;9.392;2024-02-21T09:52:04;8.40;;;4.87;;
813;SDS011;389;48.710;9.392;2024-02-21T09:54:32;9.50;;;4.63;;
813;SDS011;389;48.710;9.392;2024-02-21T09:57:02;8.67;;;4.60;;
813;SDS011;389;48.710;9.392;2024-02-21T09:59:28;6.00;;;4.40;;
813;SDS011;389;48.710;9.392;2024-02-21T10:01:56;8.07;;;4.60;;
813;SDS011;389;48.710;9.392;2024-02-21T10:04:22;8.53;;;5.10;;
813;SDS011;389;48.710;9.392;2024-02-21T10:06:48;10.00;;;5.07;;
813;SDS011;389;48.710;9.392;2024-02-21T10:09:26;7.80;;;4.63;;
813;SDS011;389;48.710;9.392;2024-02-21T10:11:53;7.27;;;4.10;;
813;SDS011;389;48.710;9.392;2024-02-21T10:14:19;7.60;;;4.00;;
813;SDS011;389;48.710;9.392;2024-02-21T10:16:49;8.40;;;4.67;;
813;SDS011;389;48.710;9.392;2024-02-21T10:19:21;7.13;;;3.33;;
813;SDS011;389;48.710;9.392;2024-02-21T10:22:03;5.83;;;2.90;;
813;SDS011;389;48.710;9.392;2024-02-21T10:24:30;8.07;;;2.60;;
813;SDS011;389;48.710;9.392;2024-02-21T10:27:04;4.03;;;2.87;;
813;SDS011;389;48.710;9.392;2024-02-21T10:29:33;5.80;;;2.40;;
813;SDS011;389;48.710;9.392;2024-02-21T10:32:09;5.13;;;2.37;;
813;SDS011;389;48.710;9.392;2024-02-21T10:34:36;3.00;;;2.13;;
813;SDS011;389;48.710;9.392;2024-02-21T10:37:04;3.40;;;2.33;;
813;SDS011;389;48.710;9.392;2024-02-21T10:39:38;2.80;;;2.10;;
813;SDS011;389;48.710;9.392;2024-02-21T10:42:04;3.90;;;2.20;;
813;SDS011;389;48.710;9.392;2024-02-21T10:44:30;3.00;;;2.40;;
813;SDS011;389;48.710;9.392;2024-02-21T10:46:57;5.13;;;2.17;;
813;SDS011;389;48.710;9.392;2024-02-21T10:49:24;3.10;;;1.90;;
813;SDS011;389;48.710;9.392;2024-02-21T10:51:53;4.23;;;2.23;;
813;SDS011;389;48.710;9.392;2024-02-21T10:54:38;2.33;;;2.13;;
813;SDS011;389;48.710;9.392;2024-02-21T10:57:15;2.23;;;2.00;;
813;SDS011;389;48.710;9.392;2024-02-21T10:59:41;4.20;;;2.57;;
813;SDS011;389;48.710;9.392;2024-02-21T11:02:07;4.20;;;2.60;;
813;SDS011;389;48.710;9.392;2024-02-21T11:04:33;3.67;;;2.37;;
813;SDS011;389;48.710;9.392;2024-02-21T11:07:01;5.23;;;3.10;;
813;SDS011;389;48.710;9.392;2024-02-21T11:09:31;4.60;;;2.80;;
813;SDS011;389;48.710;9.392;2024-02-21T11:11:57;3.63;;;2.30;;
813;SDS011;389;48.710;9.392;2024-02-21T11:14:26;3.10;;;2.20;;
813;SDS011;389;48.710;9.392;2024-02-21T11:16:53;5.20;;;2.20;;
813;SDS011;389;48.710;9.392;2024-02-21T11:19:21;3.53;;;2.50;;
813;SDS011;389;48.710;9.392;2024-02-21T11:21:51;3.20;;;2.13;;
813;SDS011;389;48.710;9.392;2024-02-21T11:26:54;4.10;;;2.10;;
813;SDS011;389;48.710;9.392;2024-02-21T11:29:26;4.07;;;2.33;;
813;SDS011;389;48.710;9.392;2024-02-21T11:31:51;2.13;;;1.93;;
813;SDS011;389;48.710;9.392;2024-02-21T11:34:18;2.57;;;1.73;;
813;SDS011;389;48.710;9.392;2024-02-21T11:36:50;2.07;;;1.87;;
813;SDS011;389;48.710;9.392;2024-02-21T11:39:24;5.10;;;2.20;;
813;SDS011;389;48.710;9.392;2024-02-21T11:44:45;3.50;;;2.40;;
813;SDS011;389;48.710;9.392;2024-02-21T11:47:11;2.73;;;1.90;;
813;SDS011;389;48.710;9.392;2024-02-21T11:49:43;3.17;;;2.07;;
813;SDS011;389;48.710;9.392;2024-02-21T11:52:14;3.83;;;2.10;;
813;SDS011;389;48.710;9.392;2024-02-21T11:54:40;4.00;;;2.13;;
813;SDS011;389;48.710;9.392;2024-02-21T11:57:06;2.93;;;2.10;;
813;SDS011;389;48.710;9.392;2024-02-21T11:59:32;3.53;;;2.10;;
813;SDS011;389;48.710;9.392;2024-02-21T12:01:59;2.63;;;1.90;;
813;SDS011;389;48.710;9.392;2024-02-21T12:04:25;4.10;;;2.00;;
813;SDS011;389;48.710;9.392;2024-02-21T12:06:52;2.60;;;1.90;;
813;SDS011;389;48.710;9.392;2024-02-21T12:09:19;5.17;;;2.10;;
813;SDS011;389;48.710;9.392;2024-02-21T12:11:45;5.87;;;2.50;;
813;SDS011;389;48.710;9.392;2024-02-21T12:14:21;4.77;;;2.50;;
813;SDS011;389;48.710;9.392;2024-02-21T12:16:47;5.27;;;1.93;;
813;SDS011;389;48.710;9.392;2024-02-21T12:19:13;6.07;;;2.10;;
813;SDS011;389;48.710;9.392;2024-02-21T12:21:41;4.83;;;2.10;;
813;SDS011;389;48.710;9.392;2024-02-21T12:26:40;3.13;;;1.70;;
813;SDS011;389;48.710;9.392;2024-02-21T12:29:06;4.43;;;1.90;;
813;SDS011;389;48.710;9.392;2024-02-21T12:31:34;2.60;;;1.70;;
813;SDS011;389;48.710;9.392;2024-02-21T12:34:02;3.63;;;1.80;;
813;SDS011;389;48.710;9.392;2024-02-21T12:36:29;3.00;;;1.83;;
813;SDS011;389;48.710;9.392;2024-02-21T12:38:55;2.20;;;1.67;;
813;SDS011;389;48.710;9.392;2024-02-21T12:41:21;2.10;;;1.90;;
813;SDS011;389;48.710;9.392;2024-02-21T12:43:46;3.20;;;1.70;;
813;SDS011;389;48.710;9.392;2024-02-21T12:46:12;2.50;;;1.70;;
813;SDS011;389;48.710;9.392;2024-02-21T12:48:38;1.50;;;1.27;;
813;SDS011;389;48.710;9.392;2024-02-21T12:51:04;3.17;;;1.63;;
813;SDS011;389;48.710;9.392;2024-02-21T12:53:30;3.50;;;2.10;;
813;SDS011;389;48.710;9.392;2024-02-21T12:55:56;9.33;;;4.90;;
813;SDS011;389;48.710;9.392;2024-02-21T12:58:21;3.77;;;2.60;;
813;SDS011;389;48.710;9.392;2024-02-21T13:00:47;5.20;;;3.77;;
813;SDS011;389;48.710;9.392;2024-02-21T13:03:13;3.30;;;2.40;;
813;SDS011;389;48.710;9.392;2024-02-21T13:05:39;2.10;;;1.57;;
813;SDS011;389;48.710;9.392;2024-02-21T13:08:14;5.17;;;1.70;;
813;SDS011;389;48.710;9.392;2024-02-21T13:10:39;2.73;;;1.67;;
813;SDS011;389;48.710;9.392;2024-02-21T13:13:05;10.33;;;9.23;;
813;SDS011;389;48.710;9.392;2024-02-21T13:15:30;1.90;;;1.80;;
813;SDS011;389;48.710;9.392;2024-02-21T13:17:56;2.10;;;1.83;;
813;SDS011;389;48.710;9.392;2024-02-21T13:20:25;2.77;;;1.60;;
813;SDS011;389;48.710;9.392;2024-02-21T13:22:52;1.73;;;1.50;;
813;SDS011;389;48.710;9.392;2024-02-21T13:25:17;1.90;;;1.70;;
813;SDS011;389;48.710;9.392;2024-02-21T13:27:45;3.40;;;2.10;;
813;SDS011;389;48.710;9.392;2024-02-21T13:30:12;4.87;;;1.60;;
813;SDS011;389;48.710;9.392;2024-02-21T13:32:40;1.47;;;1.30;;
813;SDS011;389;48.710;9.392;2024-02-21T13:35:07;1.83;;;1.30;;
813;SDS011;389;48.710;9.392;2024-02-21T13:37:33;4.17;;;2.07;;
813;SDS011;389;48.710;9.392;2024-02-21T13:58:04;3.97;;;2.03;;
813;SDS011;389;48.710;9.392;2024-02-21T14:00:30;1.67;;;1.57;;
813;SDS011;389;48.710;9.392;2024-02-21T14:02:59;3.93;;;2.53;;
813;SDS011;389;48.710;9.392;2024-02-21T14:05:30;2.70;;;2.13;;
813;SDS011;389;48.710;9.392;2024-02-21T14:07:56;3.30;;;2.30;;
813;SDS011;389;48.710;9.392;2024-02-21T14:10:24;2.40;;;1.90;;
813;SDS011;389;48.710;9.392;2024-02-21T14:12:56;3.50;;;1.70;;
813;SDS011;389;48.710;9.392;2024-02-21T14:15:22;5.37;;;1.93;;
813;SDS011;389;48.710;9.392;2024-02-21T14:17:52;2.57;;;1.60;;
813;SDS011;389;48.710;9.392;2024-02-21T14:20:31;2.00;;;1.80;;
813;SDS011;389;48.710;9.392;2024-02-21T14:23:15;2.00;;;1.90;;
813;SDS011;389;48.710;9.392;2024-02-21T14:25:42;3.50;;;1.80;;
813;SDS011;389;48.710;9.392;2024-02-21T14:28:10;2.00;;;1.80;;
813;SDS011;389;48.710;9.392;2024-02-21T14:30:45;1.73;;;1.60;;
813;SDS011;389;48.710;9.392;2024-02-21T14:33:14;2.60;;;1.93;;
813;SDS011;389;48.710;9.392;2024-02-21T14:35:50;3.30;;;2.07;;
813;SDS011;389;48.710;9.392;2024-02-21T14:38:19;5.70;;;2.37;;
813;SDS011;389;48.710;9.392;2024-02-21T14:40:44;8.20;;;5.33;;
813;SDS011;389;48.710;9.392;2024-02-21T14:43:10;4.17;;;2.53;;
813;SDS011;389;48.710;9.392;2024-02-21T14:45:36;3.47;;;2.80;;
813;SDS011;389;48.710;9.392;2024-02-21T14:48:03;4.17;;;3.83;;
813;SDS011;389;48.710;9.392;2024-02-21T14:50:32;3.87;;;3.00;;
813;SDS011;389;48.710;9.392;2024-02-21T14:52:58;3.57;;;2.23;;
813;SDS011;389;48.710;9.392;2024-02-21T14:55:24;3.20;;;2.00;;
813;SDS011;389;48.710;9.392;2024-02-21T14:57:50;6.60;;;2.37;;
813;SDS011;389;48.710;9.392;2024-02-21T15:00:16;3.60;;;2.60;;
813;SDS011;389;48.710;9.392;2024-02-21T15:02:42;2.03;;;1.90;;
813;SDS011;389;48.710;9.392;2024-02-21T15:05:10;4.67;;;3.30;;
813;SDS011;389;48.710;9.392;2024-02-21T15:07:37;4.03;;;2.60;;
813;SDS011;389;48.710;9.392;2024-02-21T15:10:06;4.30;;;2.87;;
813;SDS011;389;48.710;9.392;2024-02-21T15:12:32;2.67;;;1.97;;
813;SDS011;389;48.710;9.392;2024-02-21T15:14:58;3.37;;;2.10;;
813;SDS011;389;48.710;9.392;2024-02-21T15:17:24;3.20;;;2.03;;
813;SDS011;389;48.710;9.392;2024-02-21T15:19:50;4.50;;;3.20;;
813;SDS011;389;48.710;9.392;2024-02-21T15:22:19;7.93;;;6.00;;
813;SDS011;389;48.710;9.392;2024-02-21T15:24:46;3.07;;;1.83;;
813;SDS011;389;48.710;9.392;2024-02-21T15:27:13;3.30;;;2.30;;
813;SDS011;389;48.710;9.392;2024-02-21T15:29:40;4.57;;;2.17;;
813;SDS011;389;48.710;9.392;2024-02-21T15:32:06;3.20;;;2.50;;
813;SDS011;389;48.710;9.392;2024-02-21T15:34:31;4.53;;;2.17;;
813;SDS011;389;48.710;9.392;2024-02-21T15:36:57;4.00;;;2.87;;
813;SDS011;389;48.710;9.392;2024-02-21T15:39:24;7.27;;;4.00;;
813;SDS011;389;48.710;9.392;2024-02-21T15:41:52;4.23;;;3.73;;
813;SDS011;389;48.710;9.392;2024-02-21T15:44:19;5.00;;;4.07;;
813;SDS011;389;48.710;9.392;2024-02-21T15:46:46;5.20;;;3.20;;
813;SDS011;389;48.710;9.392;2024-02-21T15:49:12;3.10;;;2.80;;
813;SDS011;389;48.710;9.392;2024-02-21T15:51:41;5.63;;;2.90;;
813;SDS011;389;48.710;9.392;2024-02-21T15:54:09;5.77;;;2.83;;
813;SDS011;389;48.710;9.392;2024-02-21T15:56:35;2.77;;;2.20;;
813;SDS011;389;48.710;9.392;2024-02-21T15:59:01;4.37;;;2.67;;
813;SDS011;389;48.710;9.392;2024-02-21T16:01:28;5.13;;;3.00;;
813;SDS011;389;48.710;9.392;2024-02-21T16:03:58;4.80;;;2.57;;
813;SDS011;389;48.710;9.392;2024-02-21T16:06:24;6.50;;;3.40;;
813;SDS011;389;48.710;9.392;2024-02-21T16:08:49;6.10;;;3.30;;
813;SDS011;389;48.710;9.392;2024-02-21T16:11:15;8.00;;;4.30;;